.
WxDataArchive / Data Records for 2009-02-13
2009-02-12 February 2009 2009-02-14

Data Records for Friday, 13 February 2009

Time	Temp	Chill	HIndex	Humid	Dewpt	 Wind 	HiWind	WindDir	Rain 	Barom 
-----	----	-----	------	-----	-----	------	------	-------	-----	----- 
00:00	33.4	33.4	33.4	76	26.7	2	4	270	0.00	30.112 
00:05	33.2	33.2	33.2	76	26.5	2	5	270	0.00	30.110 
00:10	33.1	33.1	33.1	76	26.4	1	5	248	0.00	30.109 
00:15	33.1	33.1	33.1	76	26.4	1	5	270	0.00	30.109 
00:20	32.9	32.9	32.9	77	26.5	1	3	248	0.00	30.109 
00:25	32.8	32.8	32.8	77	26.4	1	3	248	0.00	30.109 
00:30	32.8	32.8	32.8	77	26.4	1	4	248	0.00	30.109 
00:35	32.7	32.7	32.7	77	26.3	1	3	248	0.00	30.109 
00:40	32.7	32.7	32.7	77	26.3	1	3	248	0.00	30.109 
00:45	32.5	32.5	32.5	77	26.1	1	4	248	0.00	30.109 
00:50	32.5	32.5	32.5	77	26.1	1	5	248	0.00	30.109 
00:55	32.5	32.5	32.5	77	26.1	1	4	248	0.00	30.110 
01:00	32.4	32.4	32.4	77	26.0	1	7	248	0.00	30.111 
01:05	32.4	32.4	32.4	77	26.0	1	4	248	0.00	30.112 
01:10	32.4	32.4	32.4	77	26.0	1	4	248	0.00	30.111 
01:15	32.4	32.4	32.4	77	26.0	2	4	270	0.00	30.112 
01:20	32.4	32.4	32.4	77	26.0	1	4	248	0.00	30.114 
01:25	32.2	32.2	32.2	77	25.8	1	6	270	0.00	30.115 
01:30	32.2	32.2	32.2	77	25.8	1	4	248	0.00	30.116 
01:35	32.2	32.2	32.2	77	25.8	2	4	248	0.00	30.117 
01:40	32.1	32.1	32.1	76	25.4	1	5	248	0.00	30.118 
01:45	32.1	32.1	32.1	76	25.4	1	3	248	0.00	30.120 
01:50	31.9	31.9	31.9	76	25.2	1	3	248	0.00	30.121 
01:55	31.9	31.9	31.9	76	25.2	1	3	248	0.00	30.122 
02:00	31.8	31.8	31.8	76	25.1	1	4	248	0.00	30.123 
02:05	31.8	31.8	31.8	76	25.1	2	6	270	0.00	30.122 
02:10	31.8	31.8	31.8	75	24.8	1	3	248	0.00	30.122 
02:15	31.6	31.6	31.6	75	24.6	1	3	248	0.00	30.123 
02:20	31.6	31.6	31.6	75	24.6	1	3	225	0.00	30.123 
02:25	31.5	31.5	31.5	75	24.5	1	2	225	0.00	30.124 
02:30	31.5	31.5	31.5	75	24.5	1	3	248	0.00	30.123 
02:35	31.3	31.3	31.3	75	24.3	1	3	248	0.00	30.123 
02:40	31.2	31.2	31.2	75	24.2	1	3	248	0.00	30.124 
02:45	31.2	31.2	31.2	75	24.2	0	3	248	0.00	30.124 
02:50	31.0	31.0	31.0	75	24.0	0	3	248	0.00	30.124 
02:55	30.9	30.9	30.9	75	23.9	0	3	225	0.00	30.124 
03:00	30.9	30.9	30.9	75	23.9	0	4	270	0.00	30.127 
03:05	30.7	30.7	30.7	75	23.7	1	4	248	0.00	30.127 
03:10	30.9	30.9	30.9	75	23.9	1	3	270	0.00	30.129 
03:15	30.9	30.9	30.9	74	23.6	1	3	248	0.00	30.132 
03:20	30.9	30.9	30.9	73	23.3	1	2	292	0.00	30.132 
03:25	30.9	30.9	30.9	73	23.3	1	3	292	0.00	30.129 
03:30	30.9	30.9	30.9	73	23.3	1	2	292	0.00	30.133 
03:35	30.7	30.7	30.7	73	23.1	1	3	248	0.00	30.133 
03:40	30.7	30.7	30.7	73	23.1	0	2	248	0.00	30.134 
03:45	30.6	30.6	30.6	73	23.0	0	3	248	0.00	30.136 
03:50	30.6	30.6	30.6	73	23.0	1	3	248	0.00	30.136 
03:55	30.6	30.6	30.6	73	23.0	1	4	270	0.00	30.137 
04:00	30.6	30.6	30.6	73	23.0	1	4	248	0.00	30.138 
04:05	30.6	30.6	30.6	73	23.0	1	3	248	0.00	30.141 
04:10	30.6	30.6	30.6	72	22.7	1	3	248	0.00	30.142 
04:15	30.6	30.6	30.6	72	22.7	0	3	270	0.00	30.142 
04:20	30.4	30.4	30.4	73	22.8	1	3	270	0.00	30.145 
04:25	30.3	30.3	30.3	73	22.7	1	4	270	0.00	30.147 
04:30	30.3	30.3	30.3	73	22.7	1	3	270	0.00	30.145 
04:35	30.1	30.1	30.1	73	22.5	1	3	270	0.00	30.147 
04:40	30.1	30.1	30.1	74	22.8	1	3	270	0.00	30.146 
04:45	30.1	30.1	30.1	74	22.8	0	2	270	0.00	30.149 
04:50	30.1	30.1	30.1	74	22.8	1	3	248	0.00	30.149 
04:55	30.0	30.0	30.0	74	22.7	1	3	248	0.00	30.153 
05:00	30.0	30.0	30.0	74	22.7	1	5	248	0.00	30.154 
05:05	30.0	30.0	30.0	75	23.1	2	5	248	0.00	30.156 
05:10	30.0	30.0	30.0	75	23.1	1	4	270	0.00	30.159 
05:15	29.8	29.8	29.8	75	22.9	1	2	270	0.00	30.160 
05:20	29.8	29.8	29.8	75	22.9	1	3	270	0.00	30.161 
05:25	29.7	29.7	29.7	75	22.8	1	3	270	0.00	30.161 
05:30	29.7	29.7	29.7	75	22.8	1	3	248	0.00	30.162 
05:35	29.7	29.7	29.7	75	22.8	0	2	248	0.00	30.162 
05:40	29.7	29.7	29.7	74	22.4	1	3	248	0.00	30.163 
05:45	29.7	29.7	29.7	74	22.4	1	3	248	0.00	30.166 
05:50	29.7	29.7	29.7	74	22.4	1	3	315	0.00	30.169 
05:55	29.7	29.7	29.7	73	22.1	1	4	270	0.00	30.169 
06:00	29.7	29.7	29.7	73	22.1	1	3	270	0.00	30.170 
06:05	29.5	29.5	29.5	73	21.9	1	3	270	0.00	30.170 
06:10	29.5	29.5	29.5	73	21.9	1	4	292	0.00	30.170 
06:15	29.4	29.4	29.4	73	21.8	1	5	248	0.00	30.174 
06:20	29.4	29.4	29.4	74	22.2	0	2	248	0.00	30.176 
06:25	29.3	29.3	29.3	74	22.1	1	3	270	0.00	30.177 
06:30	29.1	29.1	29.1	74	21.9	1	2	248	0.00	30.178 
06:35	29.1	29.1	29.1	74	21.9	1	2	248	0.00	30.179 
06:40	29.0	29.0	29.0	75	22.1	0	1	248	0.00	30.179 
06:45	29.0	29.0	29.0	75	22.1	0	2	248	0.00	30.180 
06:50	28.8	28.8	28.8	75	21.9	0	2	248	0.00	30.180 
06:55	28.8	28.8	28.8	75	21.9	1	3	248	0.00	30.182 
07:00	28.8	28.8	28.8	76	22.2	0	2	248	0.00	30.184 
07:05	28.7	28.7	28.7	75	21.8	1	2	248	0.00	30.186 
07:10	28.5	28.5	28.5	76	21.9	0	2	248	0.00	30.188 
07:15	28.5	28.5	28.5	76	21.9	0	2	248	0.00	30.190 
07:20	28.4	28.4	28.4	76	21.8	0	2	248	0.00	30.192 
07:25	28.2	28.2	28.2	76	21.6	0	2	248	0.00	30.193 
07:30	28.1	28.1	28.1	76	21.5	0	1	248	0.00	30.194 
07:35	28.1	28.1	28.1	77	21.8	0	1	248	0.00	30.194 
07:40	27.9	27.9	27.9	77	21.6	0	1	248	0.00	30.195 
07:45	27.8	27.8	27.8	77	21.5	0	1	248	0.00	30.194 
07:50	27.8	27.8	27.8	77	21.5	0	1	248	0.00	30.195 
07:55	27.8	27.8	27.8	78	21.8	0	2	248	0.00	30.195 
08:00	27.8	27.8	27.8	78	21.8	0	1	248	0.00	30.196 
08:05	27.8	27.8	27.8	78	21.8	0	1	248	0.00	30.196 
08:10	27.8	27.8	27.8	79	22.2	0	1	248	0.00	30.197 
08:15	27.9	27.9	27.9	79	22.2	0	1	248	0.00	30.198 
08:20	28.2	28.2	28.2	79	22.5	0	1	248	0.00	30.201 
08:25	28.4	28.4	28.4	79	22.7	0	1	248	0.00	30.200 
08:30	28.8	28.8	28.8	78	22.8	0	2	248	0.00	30.203 
08:35	29.1	29.1	29.1	77	22.8	0	2	248	0.00	30.204 
08:40	29.4	29.4	29.4	77	23.1	0	1	248	0.00	30.208 
08:45	29.8	29.8	29.8	76	23.2	0	2	248	0.00	30.209 
08:50	30.1	30.1	30.1	75	23.2	1	2	248	0.00	30.210 
08:55	30.3	30.3	30.3	74	23.0	1	3	248	0.00	30.208 
09:00	30.6	30.6	30.6	74	23.3	1	3	338	0.00	30.209 
09:05	30.9	30.9	30.9	73	23.3	1	2	338	0.00	30.210 
09:10	31.2	31.2	31.2	72	23.2	1	3	248	0.00	30.210 
09:15	31.6	31.6	31.6	72	23.6	0	2	292	0.00	30.206 
09:20	31.9	31.9	31.9	71	23.6	1	4	315	0.00	30.204 
09:25	32.1	32.1	32.1	70	23.4	1	4	270	0.00	30.205 
09:30	32.4	32.4	32.4	69	23.4	1	3	292	0.00	30.206 
09:35	32.7	32.7	32.7	69	23.7	1	4	248	0.00	30.204 
09:40	32.8	32.8	32.8	69	23.8	1	3	270	0.00	30.203 
09:45	33.1	33.1	33.1	69	24.1	1	3	0	0.00	30.201 
09:50	33.4	33.4	33.4	68	24.0	1	2	315	0.00	30.203 
09:55	33.5	33.5	33.5	67	23.7	1	4	315	0.00	30.201 
10:00	33.7	33.7	33.7	67	23.9	1	3	292	0.00	30.203 
10:05	34.1	34.1	34.1	67	24.3	1	3	292	0.00	30.205 
10:10	34.1	34.1	34.1	66	23.9	1	3	338	0.00	30.206 
10:15	34.1	34.1	34.1	66	23.9	1	3	270	0.00	30.196 
10:20	34.4	34.4	34.4	66	24.2	1	3	338	0.00	30.200 
10:25	34.6	34.6	34.6	66	24.4	1	2	338	0.00	30.202 
10:30	35.0	35.0	35.0	66	24.8	0	3	270	0.00	30.204 
10:35	35.3	35.3	35.3	65	24.7	1	3	270	0.00	30.203 
10:40	35.5	35.5	35.5	65	24.9	0	2	270	0.00	30.205 
10:45	35.8	35.8	35.8	64	24.8	0	2	270	0.00	30.205 
10:50	35.6	35.6	35.6	63	24.3	1	3	315	0.00	30.207 
10:55	35.6	35.6	35.6	63	24.3	1	3	315	0.00	30.206 
11:00	35.8	35.8	35.8	63	24.5	1	2	315	0.00	30.206 
11:05	35.9	35.9	35.9	64	24.9	1	3	248	0.00	30.207 
11:10	36.2	36.2	36.2	63	24.8	1	2	248	0.00	30.210 
11:15	36.5	36.5	36.5	63	25.1	1	4	248	0.00	30.209 
11:20	36.5	36.5	36.5	62	24.7	0	2	248	0.00	30.213 
11:25	36.3	36.3	36.3	62	24.5	0	2	292	0.00	30.218 
11:30	36.2	36.2	36.2	62	24.5	0	2	292	0.00	30.220 
11:35	36.5	36.5	36.5	63	25.1	1	2	292	0.00	30.217 
11:40	36.8	36.8	36.8	62	25.0	2	6	248	0.00	30.220 
11:45	36.3	36.3	36.3	61	24.2	0	2	248	0.00	30.221 
11:50	36.2	36.2	36.2	62	24.5	1	4	248	0.00	30.220 
11:55	36.0	36.0	36.0	61	23.9	0	3	248	0.00	30.218 
12:00	36.5	36.5	36.5	63	25.1	0	3	0	0.00	30.214 
12:05	37.0	37.0	37.0	61	24.8	1	3	270	0.00	30.212 
12:10	37.5	37.5	37.5	60	24.9	0	3	248	0.00	30.211 
12:15	37.9	37.9	37.9	60	25.3	0	3	248	0.00	30.206 
12:20	38.3	38.3	38.3	59	25.2	0	2	338	0.00	30.205 
12:25	38.5	38.5	38.5	60	25.8	0	3	248	0.00	30.202 
12:30	38.6	38.6	38.6	61	26.3	0	2	248	0.00	30.203 
12:35	38.5	38.5	38.5	58	25.0	1	4	0	0.00	30.203 
12:40	38.5	38.5	38.5	59	25.4	2	5	248	0.00	30.202 
12:45	38.6	38.6	38.6	59	25.5	1	3	248	0.00	30.200 
12:50	38.8	38.8	38.8	59	25.7	1	3	248	0.00	30.196 
12:55	38.8	38.8	38.8	59	25.7	1	4	248	0.00	30.194 
13:00	38.9	38.9	38.9	58	25.4	1	3	248	0.00	30.193 
13:05	39.3	39.3	39.3	60	26.6	1	2	270	0.00	30.194 
13:10	39.2	39.2	39.2	55	24.4	1	4	270	0.00	30.193 
13:15	39.3	39.3	39.3	57	25.4	1	4	270	0.00	30.191 
13:20	39.2	39.2	39.2	56	24.8	2	4	225	0.00	30.191 
13:25	39.3	39.3	39.3	58	25.8	1	4	248	0.00	30.189 
13:30	39.6	39.6	39.6	56	25.2	1	3	248	0.00	30.187 
13:35	39.5	39.5	39.5	57	25.5	1	6	270	0.00	30.186 
13:40	39.2	39.2	39.2	56	24.8	1	4	248	0.00	30.190 
13:45	39.2	39.2	39.2	57	25.3	0	1	248	0.00	30.190 
13:50	39.2	39.2	39.2	57	25.3	1	2	315	0.00	30.188 
13:55	39.9	39.9	39.9	57	25.9	1	5	248	0.00	30.185 
14:00	40.1	40.1	40.1	54	24.8	1	2	248	0.00	30.178 
14:05	40.2	40.2	40.2	55	25.3	1	3	248	0.00	30.178 
14:10	40.2	40.2	40.2	55	25.3	1	3	270	0.00	30.176 
14:15	40.5	40.5	40.5	54	25.2	1	3	270	0.00	30.172 
14:20	40.6	40.6	40.6	55	25.7	1	5	248	0.00	30.169 
14:25	40.9	40.9	40.9	53	25.1	1	5	248	0.00	30.167 
14:30	41.1	41.1	41.1	53	25.3	1	3	248	0.00	30.171 
14:35	40.9	40.9	40.9	52	24.6	0	2	292	0.00	30.167 
14:40	41.1	41.1	41.1	54	25.7	1	3	248	0.00	30.166 
14:45	40.9	40.9	40.9	53	25.1	1	3	270	0.00	30.168 
14:50	40.8	40.8	40.8	53	25.0	0	2	270	0.00	30.163 
14:55	40.6	40.6	40.6	52	24.4	1	3	248	0.00	30.160 
15:00	40.8	40.8	40.8	51	24.1	0	2	248	0.00	30.159 
15:05	40.6	40.6	40.6	54	25.3	0	2	248	0.00	30.160 
15:10	41.1	41.1	41.1	52	24.8	2	6	315	0.00	30.156 
15:15	41.3	41.3	41.3	51	24.6	1	3	248	0.00	30.159 
15:20	41.5	41.5	41.5	51	24.7	0	4	248	0.00	30.161 
15:25	41.6	41.6	41.6	51	24.8	0	1	248	0.00	30.160 
15:30	41.6	41.6	41.6	52	25.3	0	1	248	0.00	30.158 
15:35	41.8	41.8	41.8	51	25.0	1	2	248	0.00	30.157 
15:40	41.9	41.9	41.9	51	25.1	0	2	248	0.00	30.151 
15:45	41.3	41.3	41.3	51	24.6	1	3	292	0.00	30.151 
15:50	41.2	41.2	41.2	51	24.5	0	1	292	0.00	30.153 
15:55	41.3	41.3	41.3	52	25.0	1	3	292	0.00	30.154 
16:00	41.3	41.3	41.3	52	25.0	0	2	248	0.00	30.156 
16:05	41.5	41.5	41.5	52	25.2	0	2	248	0.00	30.152 
16:10	41.6	41.6	41.6	52	25.3	0	2	248	0.00	30.147 
16:15	41.6	41.6	41.6	50	24.4	1	3	248	0.00	30.144 
16:20	41.3	41.3	41.3	48	23.1	0	3	112	0.00	30.150 
16:25	40.9	40.9	40.9	50	23.7	0	2	112	0.00	30.146 
16:30	40.6	40.6	40.6	52	24.4	0	3	248	0.00	30.144 
16:35	40.6	40.6	40.6	52	24.4	0	3	248	0.00	30.143 
16:40	40.5	40.5	40.5	52	24.3	0	1	248	0.00	30.140 
16:45	40.3	40.3	40.3	51	23.6	0	1	248	0.00	30.140 
16:50	40.2	40.2	40.2	53	24.5	0	2	248	0.00	30.139 
16:55	40.2	40.2	40.2	51	23.5	0	2	248	0.00	30.131 
17:00	39.9	39.9	39.9	52	23.7	0	1	248	0.00	30.127 
17:05	39.8	39.8	39.8	52	23.6	0	1	248	0.00	30.126 
17:10	39.6	39.6	39.6	52	23.4	0	1	248	0.00	30.126 
17:15	39.6	39.6	39.6	52	23.4	0	1	248	0.00	30.127 
17:20	39.5	39.5	39.5	52	23.3	0	1	248	0.00	30.129 
17:25	39.5	39.5	39.5	52	23.3	0	1	248	0.00	30.129 
17:30	39.3	39.3	39.3	52	23.2	0	1	248	0.00	30.130 
17:35	39.1	39.1	39.1	52	23.0	0	0	---	0.00	30.130 
17:40	38.9	38.9	38.9	52	22.8	0	0	---	0.00	30.130 
17:45	38.8	38.8	38.8	54	23.6	0	0	---	0.00	30.125 
17:50	38.5	38.5	38.5	55	23.8	0	1	248	0.00	30.119 
17:55	38.0	38.0	38.0	55	23.3	0	0	---	0.00	30.119 
18:00	37.8	37.8	37.8	55	23.1	0	0	---	0.00	30.116 
18:05	37.3	37.3	37.3	57	23.5	0	0	---	0.00	30.117 
18:10	37.0	37.0	37.0	58	23.6	0	0	---	0.00	30.117 
18:15	36.6	36.6	36.6	58	23.2	0	0	---	0.00	30.116 
18:20	36.2	36.2	36.2	59	23.3	0	0	---	0.00	30.114 
18:25	35.9	35.9	35.9	61	23.8	0	0	---	0.00	30.113 
18:30	35.6	35.6	35.6	62	23.9	0	1	248	0.00	30.113 
18:35	35.5	35.5	35.5	63	24.2	0	0	---	0.00	30.115 
18:40	35.3	35.3	35.3	63	24.0	0	0	---	0.00	30.116 
18:45	35.0	35.0	35.0	64	24.1	0	0	---	0.00	30.115 
18:50	34.9	34.9	34.9	64	24.0	0	0	---	0.00	30.117 
18:55	34.4	34.4	34.4	65	23.9	0	0	---	0.00	30.118 
19:00	34.1	34.1	34.1	65	23.6	0	0	---	0.00	30.120 
19:05	33.8	33.8	33.8	66	23.7	0	0	---	0.00	30.120 
19:10	33.4	33.4	33.4	66	23.3	0	0	---	0.00	30.118 
19:15	33.1	33.1	33.1	68	23.7	0	0	---	0.00	30.120 
19:20	32.8	32.8	32.8	69	23.8	0	0	---	0.00	30.118 
19:25	32.5	32.5	32.5	70	23.8	0	0	---	0.00	30.118 
19:30	32.2	32.2	32.2	71	23.9	0	0	---	0.00	30.113 
19:35	31.9	31.9	31.9	72	23.9	0	0	---	0.00	30.110 
19:40	31.8	31.8	31.8	73	24.1	0	0	---	0.00	30.107 
19:45	31.5	31.5	31.5	73	23.9	0	0	---	0.00	30.106 
19:50	31.2	31.2	31.2	74	23.9	0	0	---	0.00	30.104 
19:55	31.0	31.0	31.0	75	24.0	0	0	---	0.00	30.105 
20:00	30.9	30.9	30.9	76	24.2	0	0	---	0.00	30.104 
20:05	30.6	30.6	30.6	77	24.3	0	0	---	0.00	30.101 
20:10	30.4	30.4	30.4	77	24.1	0	0	---	0.00	30.096 
20:15	30.3	30.3	30.3	77	24.0	0	0	---	0.00	30.096 
20:20	30.3	30.3	30.3	78	24.3	0	0	---	0.00	30.100 
20:25	30.4	30.4	30.4	79	24.7	0	0	---	0.00	30.104 
20:30	30.7	30.7	30.7	79	25.0	0	0	---	0.00	30.103 
20:35	30.9	30.9	30.9	79	25.2	0	0	---	0.00	30.104 
20:40	31.0	31.0	31.0	79	25.3	0	0	---	0.00	30.105 
20:45	31.0	31.0	31.0	79	25.3	0	0	---	0.00	30.109 
20:50	31.2	31.2	31.2	79	25.5	0	0	---	0.00	30.108 
20:55	31.2	31.2	31.2	79	25.5	0	0	---	0.00	30.113 
21:00	31.0	31.0	31.0	79	25.3	0	0	---	0.00	30.113 
21:05	31.0	31.0	31.0	79	25.3	0	0	---	0.00	30.115 
21:10	30.9	30.9	30.9	79	25.2	0	0	---	0.00	30.114 
21:15	30.9	30.9	30.9	79	25.2	0	0	---	0.00	30.118 
21:20	31.0	31.0	31.0	80	25.6	0	0	---	0.00	30.118 
21:25	31.2	31.2	31.2	80	25.8	0	0	---	0.00	30.120 
21:30	31.2	31.2	31.2	80	25.8	0	0	---	0.00	30.123 
21:35	31.3	31.3	31.3	80	25.9	0	0	---	0.00	30.120 
21:40	31.5	31.5	31.5	80	26.1	0	0	---	0.00	30.117 
21:45	31.6	31.6	31.6	80	26.2	0	1	248	0.00	30.116 
21:50	31.9	31.9	31.9	80	26.4	0	1	248	0.00	30.111 
21:55	32.1	32.1	32.1	80	26.6	0	0	---	0.00	30.105 
22:00	32.2	32.2	32.2	80	26.7	0	0	---	0.00	30.110 
22:05	32.4	32.4	32.4	80	26.9	0	0	---	0.00	30.111 
22:10	32.4	32.4	32.4	80	26.9	0	1	248	0.00	30.101 
22:15	32.7	32.7	32.7	78	26.6	0	2	248	0.00	30.096 
22:20	33.2	33.2	33.2	75	26.2	1	3	112	0.00	30.088 
22:25	33.7	33.7	33.7	74	26.3	1	3	90	0.00	30.090 
22:30	34.0	34.0	34.0	73	26.3	0	2	90	0.00	30.096 
22:35	34.1	34.1	34.1	73	26.4	0	1	90	0.00	30.100 
22:40	34.1	34.1	34.1	73	26.4	0	1	90	0.00	30.097 
22:45	34.3	34.3	34.3	73	26.6	0	2	90	0.00	30.100 
22:50	34.3	34.3	34.3	73	26.6	0	1	90	0.00	30.100 
22:55	34.4	34.4	34.4	73	26.7	1	2	90	0.00	30.097 
23:00	34.4	34.4	34.4	73	26.7	0	1	90	0.00	30.105 
23:05	34.3	34.3	34.3	73	26.6	0	0	---	0.00	30.102 
23:10	34.3	34.3	34.3	74	26.9	0	0	---	0.00	30.105 
23:15	34.1	34.1	34.1	74	26.7	0	0	---	0.00	30.106 
23:20	34.0	34.0	34.0	74	26.6	0	0	---	0.00	30.107 
23:25	34.0	34.0	34.0	75	26.9	0	1	90	0.00	30.105 
23:30	34.0	34.0	34.0	74	26.6	1	2	90	0.00	30.096 
23:35	34.1	34.1	34.1	74	26.7	1	3	90	0.00	30.088 
23:40	34.3	34.3	34.3	74	26.9	1	3	90	0.00	30.082 
23:45	34.3	34.3	34.3	73	26.6	1	2	90	0.00	30.088 
23:50	34.3	34.3	34.3	73	26.6	1	2	90	0.00	30.089 
23:55	34.4	34.4	34.4	73	26.7	1	3	90	0.00	30.087 

CoCoRaHS
IN-AL-39
A2 Web Hosting
Creative Commons License
GoDaddy
search engine by freefind advanced

loaded 2018-11-19 10:27:52 • last modified 2010-11-18 10:43:29
Privacy PolicyDisclaimer
• wx.awcolley.com is powered by PmWiki v.2002016 •
• all content (unless otherwise noted) © 2018 A W Colley